Terminal Aerodrome Forecast
Issued by NWS

Current Version | Previous Version | Text Only | Print | Product List | Glossary On
Versions: 1 2 3 4 5 6 7 8 9 10 11 12
085
FTUS44 KBMX 221720
TAFANB
TAF
KANB 221720Z 2218/2318 22005KT P6SM VCTS SCT040CB
     FM230100 22003KT P6SM BKN250
     FM231000 00000KT 4SM BR SCT050
     FM231400 26005KT P6SM VCTS BKN045CB=

USA.gov is the U.S. government's official web portal to all federal, state and local government web resources and services.